createdAt,value
2023-02-18T00:00:29.512Z,43.65
2023-02-18T00:02:59.036Z,46.05
2023-02-18T00:05:27.081Z,45.15
2023-02-18T00:07:55.262Z,45.47
2023-02-18T00:10:23.334Z,44.67
2023-02-18T00:12:51.532Z,43.03
2023-02-18T00:15:19.752Z,44.17
2023-02-18T00:17:47.975Z,44.45
2023-02-18T00:20:17.621Z,44.53
2023-02-18T00:22:45.682Z,42.30
2023-02-18T00:25:13.815Z,45.00
2023-02-18T00:27:41.833Z,45.20
2023-02-18T00:30:10.642Z,43.17
2023-02-18T00:32:38.719Z,44.65
2023-02-18T00:35:07.360Z,44.53
2023-02-18T00:37:37.223Z,44.70
2023-02-18T00:40:06.167Z,43.60
2023-02-18T00:42:35.100Z,43.65
2023-02-18T00:45:03.289Z,43.38
2023-02-18T00:47:32.266Z,43.70
2023-02-18T00:50:01.513Z,45.50
2023-02-18T00:52:29.859Z,43.00
2023-02-18T00:54:59.376Z,43.22
2023-02-18T00:57:27.531Z,43.58
2023-02-18T00:59:55.553Z,42.47
2023-02-18T01:02:23.707Z,43.13
2023-02-18T01:04:51.799Z,43.63
2023-02-18T01:07:19.997Z,42.30
2023-02-18T01:09:48.099Z,40.83
2023-02-18T01:12:17.650Z,43.10
2023-02-18T01:14:45.784Z,41.97
2023-02-18T01:17:13.815Z,41.63
2023-02-18T01:19:42.010Z,42.33
2023-02-18T01:22:10.080Z,40.72
2023-02-18T01:24:38.674Z,42.65
2023-02-18T01:27:06.757Z,40.63
2023-02-18T01:29:37.325Z,39.15
2023-02-18T01:32:05.597Z,40.08
2023-02-18T01:34:33.656Z,39.95
2023-02-18T01:37:01.796Z,41.25
2023-02-18T01:39:29.846Z,40.05
2023-02-18T01:41:58.032Z,39.92
2023-02-18T01:44:26.767Z,39.90
2023-02-18T01:46:56.549Z,38.08
2023-02-18T01:49:28.131Z,39.53
2023-02-18T01:51:58.664Z,39.88
2023-02-18T01:54:28.560Z,37.60
2023-02-18T01:56:58.640Z,40.33
2023-02-18T01:59:28.062Z,37.53
2023-02-18T02:01:57.560Z,38.35
2023-02-18T02:04:25.792Z,38.45
2023-02-18T02:06:53.911Z,37.67
2023-02-18T02:09:24.875Z,37.00
2023-02-18T02:12:43.709Z,36.85
2023-02-18T02:15:21.282Z,36.17
2023-02-18T02:17:57.066Z,36.35
2023-02-18T02:20:46.336Z,36.50
2023-02-18T02:23:37.471Z,34.83
2023-02-18T02:26:47.685Z,36.42
2023-02-18T02:29:39.944Z,35.03
2023-02-18T02:32:30.138Z,35.10
2023-02-18T02:35:00.914Z,34.53
2023-02-18T02:37:32.517Z,34.08
2023-02-18T02:40:08.468Z,34.72
2023-02-18T02:42:43.505Z,34.50
2023-02-18T02:45:12.592Z,33.65
2023-02-18T02:47:44.363Z,34.28
2023-02-18T02:50:15.353Z,33.15
2023-02-18T02:52:46.483Z,32.00
2023-02-18T02:55:14.805Z,33.30
2023-02-18T02:57:50.900Z,32.30
2023-02-18T03:00:38.901Z,32.60
2023-02-18T03:03:30.077Z,30.73
2023-02-18T03:06:10.189Z,32.50
2023-02-18T03:08:42.567Z,31.08
2023-02-18T03:11:12.003Z,30.40
2023-02-18T03:13:52.948Z,30.15
2023-02-18T03:16:29.169Z,30.25
2023-02-18T03:19:01.377Z,29.52
2023-02-18T03:21:31.559Z,30.38
2023-02-18T03:24:03.893Z,30.33
2023-02-18T03:26:33.475Z,29.63
2023-02-18T03:29:04.803Z,28.73
2023-02-18T03:31:33.305Z,28.92
2023-02-18T03:34:04.960Z,28.63
2023-02-18T03:36:34.876Z,28.90
2023-02-18T03:39:05.787Z,28.15
2023-02-18T03:41:34.239Z,28.02
2023-02-18T03:44:03.515Z,27.02
2023-02-18T03:46:31.792Z,28.13
2023-02-18T03:49:00.325Z,26.63
2023-02-18T03:51:28.577Z,26.48
2023-02-18T03:53:58.220Z,25.52
2023-02-18T03:56:26.692Z,26.05
2023-02-18T03:58:54.840Z,26.10
2023-02-18T04:01:23.161Z,25.73
2023-02-18T04:03:51.305Z,25.80
2023-02-18T04:06:19.547Z,25.70
2023-02-18T04:08:47.684Z,24.90
2023-02-18T04:11:17.404Z,25.83
2023-02-18T04:13:45.511Z,25.02
2023-02-18T04:16:13.998Z,24.50
2023-02-18T04:18:42.261Z,25.00
2023-02-18T04:21:10.612Z,23.85
2023-02-18T04:23:39.012Z,24.15
2023-02-18T04:26:07.704Z,24.02
2023-02-18T04:28:37.485Z,24.15
2023-02-18T04:31:06.352Z,24.02
2023-02-18T04:33:34.694Z,23.05
2023-02-18T04:36:03.875Z,22.95
2023-02-18T04:38:32.048Z,21.77
2023-02-18T04:41:00.253Z,21.35
2023-02-18T04:43:28.470Z,22.60
2023-02-18T04:45:58.180Z,22.42
2023-02-18T04:48:26.357Z,22.65
2023-02-18T04:50:54.547Z,22.17
2023-02-18T04:53:22.838Z,21.77
2023-02-18T04:55:51.830Z,21.05
2023-02-18T04:58:20.029Z,21.15
2023-02-18T05:00:48.387Z,20.80
2023-02-18T05:03:18.229Z,22.05
2023-02-18T05:05:47.113Z,21.52
2023-02-18T05:08:16.374Z,21.23
2023-02-18T05:10:44.584Z,21.15
2023-02-18T05:13:12.785Z,21.55
2023-02-18T05:15:41.025Z,21.38
2023-02-18T05:18:09.183Z,20.77
2023-02-18T05:20:38.974Z,20.48
2023-02-18T05:23:07.213Z,20.30
2023-02-18T05:25:35.288Z,19.38
2023-02-18T05:28:03.404Z,20.33
2023-02-18T05:30:31.532Z,19.35
2023-02-18T05:32:59.655Z,20.00
2023-02-18T05:35:27.856Z,19.40
2023-02-18T05:37:57.377Z,16.25
2023-02-18T05:40:25.427Z,15.43
2023-02-18T05:42:53.545Z,16.80
2023-02-18T05:45:21.574Z,24.15
2023-02-18T05:47:49.669Z,39.80
2023-02-18T05:50:17.896Z,40.25
2023-02-18T05:52:46.061Z,34.40
2023-02-18T05:55:15.564Z,35.90
2023-02-18T05:57:43.701Z,34.13
2023-02-18T06:00:12.878Z,32.47
2023-02-18T06:02:41.062Z,32.20
2023-02-18T06:05:09.566Z,31.30
2023-02-18T06:07:37.765Z,29.80
2023-02-18T06:10:06.573Z,29.00
2023-02-18T06:12:36.145Z,29.27
2023-02-18T06:15:04.267Z,31.13
2023-02-18T06:17:32.381Z,30.75
2023-02-18T06:20:00.436Z,31.88
2023-02-18T06:22:29.352Z,31.15
2023-02-18T06:24:57.477Z,32.42
2023-02-18T06:27:25.588Z,31.45
2023-02-18T06:29:54.992Z,31.88
2023-02-18T06:32:23.231Z,31.95
2023-02-18T06:34:51.310Z,33.20
2023-02-18T06:37:19.447Z,31.45
2023-02-18T06:39:47.521Z,31.70
2023-02-18T06:42:15.689Z,36.65
2023-02-18T06:44:43.980Z,43.42
2023-02-18T06:47:13.465Z,42.50
2023-02-18T06:49:41.521Z,42.05
2023-02-18T06:52:09.632Z,42.17
2023-02-18T06:54:37.701Z,42.00
2023-02-18T06:57:05.869Z,42.85
2023-02-18T06:59:33.906Z,49.47
2023-02-18T07:02:02.155Z,48.08
2023-02-18T07:04:31.585Z,56.10
2023-02-18T07:06:59.784Z,53.92
2023-02-18T07:09:27.932Z,55.45
2023-02-18T07:11:56.109Z,56.40
2023-02-18T07:14:24.873Z,55.90
2023-02-18T07:16:53.035Z,59.15
2023-02-18T07:19:21.083Z,69.10
2023-02-18T07:21:50.583Z,60.53
2023-02-18T07:24:18.649Z,58.08
2023-02-18T07:26:47.061Z,56.13
2023-02-18T07:29:15.096Z,58.83
2023-02-18T07:31:43.289Z,57.38
2023-02-18T07:34:11.448Z,59.08
2023-02-18T07:36:39.660Z,58.35
2023-02-18T07:39:09.282Z,56.60
2023-02-18T07:41:37.473Z,55.67
2023-02-18T07:44:09.462Z,54.97
2023-02-18T07:46:41.010Z,56.13
2023-02-18T07:49:09.377Z,56.65
2023-02-18T07:51:38.731Z,54.85
2023-02-18T07:54:08.428Z,56.67
2023-02-18T07:56:36.612Z,55.63
2023-02-18T07:59:04.847Z,55.78
2023-02-18T08:01:32.948Z,54.92
2023-02-18T08:04:01.381Z,55.28
2023-02-18T08:06:31.216Z,53.80
2023-02-18T08:08:59.660Z,52.92
2023-02-18T08:11:29.238Z,52.75
2023-02-18T08:13:57.386Z,52.22
2023-02-18T08:16:25.452Z,51.65
2023-02-18T08:18:53.741Z,50.90
2023-02-18T08:21:22.672Z,51.63
2023-02-18T08:23:50.804Z,52.08
2023-02-18T08:26:19.296Z,52.67
2023-02-18T08:28:48.925Z,50.10
2023-02-18T08:31:18.349Z,49.92
2023-02-18T08:33:46.459Z,48.45
2023-02-18T08:36:14.615Z,50.10
2023-02-18T08:38:42.689Z,49.58
2023-02-18T08:41:11.185Z,48.47
2023-02-18T08:43:39.316Z,49.53
2023-02-18T08:46:08.949Z,49.92
2023-02-18T08:48:44.440Z,49.22
2023-02-18T08:51:14.541Z,48.28
2023-02-18T08:53:42.704Z,47.85
2023-02-18T08:56:12.232Z,47.45
2023-02-18T08:58:41.124Z,45.55
2023-02-18T09:01:12.208Z,47.75
2023-02-18T09:03:40.424Z,46.83
2023-02-18T09:06:08.705Z,46.20
2023-02-18T09:08:36.863Z,43.95
2023-02-18T09:11:05.769Z,44.42
2023-02-18T09:13:33.905Z,42.30
2023-02-18T09:16:03.516Z,43.58
2023-02-18T09:18:33.107Z,42.03
2023-02-18T09:21:01.606Z,42.72
2023-02-18T09:23:30.558Z,41.70
2023-02-18T09:25:58.708Z,42.38
2023-02-18T09:28:27.103Z,41.50
2023-02-18T09:30:55.220Z,40.90
2023-02-18T09:33:23.537Z,40.83
2023-02-18T09:35:53.263Z,41.13
2023-02-18T09:38:21.640Z,41.03
2023-02-18T09:40:51.633Z,39.38
2023-02-18T09:43:24.352Z,40.03
2023-02-18T09:45:52.741Z,39.15
2023-02-18T09:48:21.573Z,39.97
2023-02-18T09:50:50.256Z,39.72
2023-02-18T09:53:19.832Z,38.65
2023-02-18T09:55:48.801Z,40.03
2023-02-18T09:58:17.767Z,38.33
2023-02-18T10:00:47.473Z,37.45
2023-02-18T10:03:16.985Z,37.53
2023-02-18T10:05:52.409Z,36.55
2023-02-18T10:08:25.660Z,36.60
2023-02-18T10:10:53.716Z,37.28
2023-02-18T10:13:23.149Z,36.60
2023-02-18T10:15:51.462Z,37.33
2023-02-18T10:18:24.285Z,36.13
2023-02-18T10:20:52.614Z,36.33
2023-02-18T10:23:22.457Z,35.50
2023-02-18T10:25:50.835Z,35.65
2023-02-18T10:28:19.635Z,37.20
2023-02-18T10:30:49.262Z,35.70
2023-02-18T10:33:24.826Z,35.15
2023-02-18T10:35:54.639Z,34.45
2023-02-18T10:38:27.442Z,36.00
2023-02-18T10:41:00.093Z,35.55
2023-02-18T10:43:32.141Z,36.17
2023-02-18T10:46:03.341Z,35.75
2023-02-18T10:48:39.627Z,35.88
2023-02-18T10:51:14.013Z,35.45
2023-02-18T10:53:44.465Z,35.42
2023-02-18T10:56:33.100Z,35.85
2023-02-18T10:59:11.524Z,34.65
2023-02-18T11:01:39.648Z,35.95
2023-02-18T11:04:12.761Z,35.47
2023-02-18T11:06:42.348Z,34.72
2023-02-18T11:09:26.084Z,36.03
2023-02-18T11:12:07.777Z,37.40
2023-02-18T11:14:44.435Z,37.70
2023-02-18T11:17:21.238Z,37.42
2023-02-18T11:19:56.658Z,36.88
2023-02-18T11:22:26.016Z,38.60
2023-02-18T11:24:58.932Z,38.60
2023-02-18T11:27:29.853Z,38.78
2023-02-18T11:30:01.971Z,39.90
2023-02-18T11:32:30.534Z,40.53
2023-02-18T11:34:58.562Z,39.40
2023-02-18T11:37:26.656Z,41.03
2023-02-18T11:39:55.982Z,40.45
2023-02-18T11:42:26.798Z,41.17
2023-02-18T11:44:55.649Z,41.22
2023-02-18T11:47:26.077Z,42.33
2023-02-18T11:50:17.176Z,41.47
2023-02-18T11:52:46.165Z,40.95
2023-02-18T11:55:16.870Z,41.20
2023-02-18T11:57:49.223Z,42.08
2023-02-18T12:00:22.625Z,41.25
2023-02-18T12:02:51.288Z,41.35
2023-02-18T12:05:22.477Z,41.10
2023-02-18T12:07:51.949Z,43.80
2023-02-18T12:10:22.974Z,42.90
2023-02-18T12:12:55.860Z,43.35
2023-02-18T12:15:27.843Z,44.17
2023-02-18T12:18:06.723Z,43.95
2023-02-18T12:21:16.074Z,43.00
2023-02-18T12:23:48.445Z,44.83
2023-02-18T12:26:22.763Z,43.55
2023-02-18T12:29:03.102Z,43.85
2023-02-18T12:32:00.612Z,43.95
2023-02-18T12:34:50.216Z,43.28
2023-02-18T12:37:41.807Z,44.05
2023-02-18T12:40:22.396Z,43.53
2023-02-18T12:42:55.485Z,43.22
2023-02-18T12:45:46.554Z,42.65
2023-02-18T12:48:36.910Z,43.72
2023-02-18T12:51:30.532Z,42.30
2023-02-18T12:54:19.361Z,42.40
2023-02-18T12:57:03.266Z,41.05
2023-02-18T12:59:53.058Z,39.53
2023-02-18T13:02:36.553Z,40.20
2023-02-18T13:05:07.191Z,40.67
2023-02-18T13:07:45.856Z,40.65
2023-02-18T13:10:38.543Z,39.83
2023-02-18T13:13:10.052Z,40.97
2023-02-18T13:15:40.022Z,40.25
2023-02-18T13:18:13.602Z,40.47
2023-02-18T13:20:42.876Z,40.40
2023-02-18T13:23:15.834Z,39.05
2023-02-18T13:25:44.068Z,39.33
2023-02-18T13:28:16.497Z,38.85
2023-02-18T13:30:46.875Z,37.95
2023-02-18T13:33:19.331Z,37.70
2023-02-18T13:35:49.682Z,36.30
2023-02-18T13:38:28.765Z,37.45
2023-02-18T13:40:57.196Z,36.50
2023-02-18T13:43:31.448Z,35.78
2023-02-18T13:46:20.696Z,36.78
2023-02-18T13:48:52.765Z,36.53
2023-02-18T13:51:29.948Z,36.97
2023-02-18T13:54:05.090Z,29.52
2023-02-18T13:56:34.244Z,27.20
2023-02-18T13:59:03.077Z,28.08
2023-02-18T14:01:40.509Z,28.35
2023-02-18T14:04:45.980Z,29.85
2023-02-18T14:07:50.041Z,29.60
2023-02-18T14:10:29.258Z,28.48
2023-02-18T14:13:21.438Z,28.58
2023-02-18T14:16:01.436Z,27.67
2023-02-18T14:19:00.223Z,28.60
2023-02-18T14:21:39.095Z,27.63
2023-02-18T14:24:09.241Z,26.92
2023-02-18T14:26:47.534Z,27.05
2023-02-18T14:29:19.833Z,27.08
2023-02-18T14:31:53.288Z,27.40
2023-02-18T14:35:00.427Z,27.52
2023-02-18T14:37:41.479Z,25.95
2023-02-18T14:40:22.931Z,26.40
2023-02-18T14:42:53.715Z,25.90
2023-02-18T14:45:28.632Z,25.45
2023-02-18T14:48:21.821Z,25.50
2023-02-18T14:50:50.509Z,24.08
2023-02-18T14:53:19.966Z,24.23
2023-02-18T14:55:50.575Z,24.20
2023-02-18T14:58:26.898Z,24.35
2023-02-18T15:00:54.974Z,23.13
2023-02-18T15:03:23.835Z,23.80
2023-02-18T15:05:52.214Z,23.55
2023-02-18T15:08:22.086Z,22.35
2023-02-18T15:10:53.118Z,22.40
2023-02-18T15:13:24.147Z,21.77
2023-02-18T15:15:53.866Z,21.42
2023-02-18T15:18:29.225Z,20.92
2023-02-18T15:20:57.795Z,20.73
2023-02-18T15:23:26.058Z,19.55
2023-02-18T15:25:55.764Z,19.13
2023-02-18T15:28:25.929Z,19.15
2023-02-18T15:30:54.868Z,19.30
2023-02-18T15:33:23.120Z,19.40
2023-02-18T15:35:51.421Z,17.88
2023-02-18T15:38:20.313Z,18.38
2023-02-18T15:40:50.351Z,18.50
2023-02-18T15:43:23.230Z,17.67
2023-02-18T15:45:52.169Z,17.50
2023-02-18T15:48:27.322Z,17.23
2023-02-18T15:51:11.269Z,17.13
2023-02-18T15:53:44.339Z,16.80
2023-02-18T15:56:14.156Z,16.30
2023-02-18T15:58:44.121Z,15.27
2023-02-18T16:01:27.314Z,15.50
2023-02-18T16:03:56.373Z,15.55
2023-02-18T16:06:25.846Z,16.05
2023-02-18T16:08:57.987Z,15.60
2023-02-18T16:11:26.574Z,14.73
2023-02-18T16:13:56.244Z,15.10
2023-02-18T16:16:26.622Z,15.70
2023-02-18T16:18:55.225Z,14.43
2023-02-18T16:21:26.112Z,13.85
2023-02-18T16:23:58.183Z,14.30
2023-02-18T16:26:30.117Z,14.07
2023-02-18T16:29:04.664Z,13.63
2023-02-18T16:31:34.280Z,13.55
2023-02-18T16:34:02.685Z,12.35
2023-02-18T16:36:31.037Z,13.25
2023-02-18T16:39:02.138Z,13.63
2023-02-18T16:41:30.352Z,12.98
2023-02-18T16:43:58.775Z,12.63
2023-02-18T16:46:30.154Z,12.52
2023-02-18T16:49:00.790Z,12.15
2023-02-18T16:51:31.948Z,12.35
2023-02-18T16:54:00.193Z,11.82
2023-02-18T16:56:29.773Z,11.82
2023-02-18T16:58:58.207Z,11.35
2023-02-18T17:01:29.731Z,12.13
2023-02-18T17:03:58.381Z,12.63
2023-02-18T17:06:26.846Z,12.10
2023-02-18T17:08:55.367Z,11.60
2023-02-18T17:11:25.943Z,11.65
2023-02-18T17:13:54.878Z,11.85
2023-02-18T17:16:23.917Z,11.57
2023-02-18T17:18:53.770Z,10.63
2023-02-18T17:21:22.928Z,11.15
2023-02-18T17:23:51.559Z,10.73
2023-02-18T17:26:21.720Z,11.00
2023-02-18T17:28:50.065Z,11.20
2023-02-18T17:31:19.495Z,11.40
2023-02-18T17:33:47.920Z,10.52
2023-02-18T17:36:17.861Z,10.90
2023-02-18T17:38:46.166Z,11.48
2023-02-18T17:41:14.441Z,10.40
2023-02-18T17:43:42.880Z,11.90
2023-02-18T17:46:12.603Z,9.93
2023-02-18T17:48:41.747Z,10.30
2023-02-18T17:51:10.198Z,10.02
2023-02-18T17:53:40.039Z,10.45
2023-02-18T17:56:10.834Z,10.23
2023-02-18T17:58:39.616Z,10.43
2023-02-18T18:01:08.026Z,10.98
2023-02-18T18:03:36.470Z,10.30
2023-02-18T18:06:06.335Z,10.52
2023-02-18T18:08:34.741Z,10.93
2023-02-18T18:11:06.102Z,12.35
2023-02-18T18:13:34.431Z,13.23
2023-02-18T18:16:02.698Z,14.70
2023-02-18T18:18:31.208Z,17.27
2023-02-18T18:21:00.270Z,16.25
2023-02-18T18:23:29.413Z,17.63
2023-02-18T18:25:58.904Z,19.98
2023-02-18T18:28:33.251Z,21.90
2023-02-18T18:31:02.229Z,20.52
2023-02-18T18:33:32.854Z,25.80
2023-02-18T18:36:01.179Z,25.08
2023-02-18T18:38:29.809Z,22.65
2023-02-18T18:40:58.041Z,23.88
2023-02-18T18:43:26.899Z,22.90
2023-02-18T18:45:56.602Z,23.50
2023-02-18T18:48:24.915Z,25.48
2023-02-18T18:50:53.522Z,24.40
2023-02-18T18:53:22.864Z,27.00
2023-02-18T18:55:51.303Z,29.55
2023-02-18T18:58:21.036Z,32.63
2023-02-18T19:00:50.554Z,34.33
2023-02-18T19:03:19.984Z,34.38
2023-02-18T19:05:48.354Z,33.83
2023-02-18T19:08:16.814Z,36.00
2023-02-18T19:10:46.463Z,35.42
2023-02-18T19:13:15.665Z,34.88
2023-02-18T19:15:43.931Z,36.03
2023-02-18T19:18:13.875Z,34.55
2023-02-18T19:20:43.614Z,37.75
2023-02-18T19:23:11.952Z,39.92
2023-02-18T19:25:40.391Z,41.38
2023-02-18T19:28:08.792Z,38.72
2023-02-18T19:30:37.430Z,39.00
2023-02-18T19:33:06.342Z,41.88
2023-02-18T19:35:34.560Z,43.97
2023-02-18T19:38:04.100Z,44.55
2023-02-18T19:40:32.220Z,45.63
2023-02-18T19:43:00.321Z,47.63
2023-02-18T19:45:28.400Z,48.10
2023-02-18T19:47:56.824Z,49.20
2023-02-18T19:50:25.068Z,50.63
2023-02-18T19:52:53.234Z,50.00
2023-02-18T19:55:22.765Z,51.92
2023-02-18T19:57:50.834Z,51.75
2023-02-18T20:00:19.847Z,51.88
2023-02-18T20:02:47.889Z,52.45
2023-02-18T20:05:16.098Z,54.08
2023-02-18T20:07:46.234Z,52.20
2023-02-18T20:10:15.402Z,54.08
2023-02-18T20:12:44.906Z,53.22
2023-02-18T20:15:13.036Z,53.60
2023-02-18T20:17:41.097Z,51.85
2023-02-18T20:20:10.098Z,54.80
2023-02-18T20:22:38.254Z,53.65
2023-02-18T20:25:08.040Z,54.38
2023-02-18T20:27:39.632Z,54.15
2023-02-18T20:30:13.407Z,54.83
2023-02-18T20:32:41.635Z,54.63
2023-02-18T20:35:09.823Z,52.95
2023-02-18T20:37:37.924Z,52.88
2023-02-18T20:40:06.732Z,54.70
2023-02-18T20:42:34.903Z,53.63
2023-02-18T20:45:03.041Z,53.10
2023-02-18T20:47:32.449Z,55.03
2023-02-18T20:50:00.788Z,53.22
2023-02-18T20:52:28.961Z,53.60
2023-02-18T20:54:57.494Z,54.25
2023-02-18T20:57:25.610Z,52.20
2023-02-18T20:59:53.762Z,54.17
2023-02-18T21:02:21.956Z,53.03
2023-02-18T21:04:51.458Z,52.30
2023-02-18T21:07:19.519Z,52.08
2023-02-18T21:09:47.613Z,51.22
2023-02-18T21:12:15.693Z,51.10
2023-02-18T21:14:43.912Z,50.83
2023-02-18T21:17:11.954Z,49.78
2023-02-18T21:19:40.093Z,51.47
2023-02-18T21:22:09.506Z,50.05
2023-02-18T21:24:37.645Z,51.00
2023-02-18T21:27:05.787Z,51.20
2023-02-18T21:29:34.182Z,49.67
2023-02-18T21:32:02.401Z,49.85
2023-02-18T21:34:30.634Z,48.78
2023-02-18T21:36:59.452Z,48.47
2023-02-18T21:39:28.915Z,50.22
2023-02-18T21:41:59.900Z,48.55
2023-02-18T21:44:41.211Z,48.38
2023-02-18T21:47:10.260Z,49.30
2023-02-18T21:49:38.289Z,46.80
2023-02-18T21:52:09.555Z,46.47
2023-02-18T21:54:40.346Z,46.53
2023-02-18T21:57:10.581Z,45.72
2023-02-18T21:59:38.674Z,45.83
2023-02-18T22:02:08.092Z,46.15
2023-02-18T22:04:37.101Z,44.58
2023-02-18T22:07:05.305Z,46.97
2023-02-18T22:09:34.900Z,45.70
2023-02-18T22:12:04.544Z,46.08
2023-02-18T22:14:32.838Z,44.42
2023-02-18T22:17:00.974Z,44.85
2023-02-18T22:19:29.212Z,44.28
2023-02-18T22:21:57.354Z,44.42
2023-02-18T22:24:25.650Z,44.05
2023-02-18T22:26:54.032Z,43.50
2023-02-18T22:29:23.515Z,41.70
2023-02-18T22:31:53.375Z,42.10
2023-02-18T22:34:21.649Z,43.95
2023-02-18T22:36:49.704Z,43.63
2023-02-18T22:39:17.906Z,42.55
2023-02-18T22:41:45.966Z,41.55
2023-02-18T22:44:14.764Z,41.00
2023-02-18T22:46:44.240Z,41.65
2023-02-18T22:49:12.357Z,41.78
2023-02-18T22:51:41.208Z,40.50
2023-02-18T22:54:11.605Z,41.25
2023-02-18T22:56:39.834Z,39.78
2023-02-18T22:59:07.974Z,40.72
2023-02-18T23:01:36.892Z,40.38
2023-02-18T23:04:07.481Z,38.53
2023-02-18T23:06:35.756Z,39.45
2023-02-18T23:09:03.917Z,37.90
2023-02-18T23:11:32.080Z,39.53
2023-02-18T23:14:17.170Z,38.70
2023-02-18T23:17:03.138Z,38.85
2023-02-18T23:19:32.988Z,38.60
2023-02-18T23:22:01.120Z,37.15
2023-02-18T23:24:29.239Z,38.35
2023-02-18T23:26:57.353Z,37.90
2023-02-18T23:29:25.411Z,35.83
2023-02-18T23:31:53.539Z,38.53
2023-02-18T23:34:21.639Z,37.17
2023-02-18T23:36:51.106Z,36.30
2023-02-18T23:39:20.408Z,36.58
2023-02-18T23:41:48.498Z,36.28
2023-02-18T23:44:17.630Z,35.30
2023-02-18T23:46:45.751Z,36.25
2023-02-18T23:49:15.523Z,35.40
2023-02-18T23:51:43.825Z,35.15
2023-02-18T23:54:13.342Z,36.00
2023-02-18T23:56:41.455Z,34.75
2023-02-18T23:59:11.613Z,33.92
